Tiergartenlauf SportSchloss Velen

Ergebnisse 2003

2000m 6km 400m


Tabelle 1: 2000m

Ges.- Plaz. Start-Nr. Name Ort / Verein Jahrgang AK Laufzeit AK Plaz.
1 104 Stefan Spanderen Velen 1991 M12 00:07:51 1
2 119 Svea Burges Viktoria Heiden 1992 W10 00:07:55 1
3 121 Stefani Wessing Viktoria Heiden 1992 W10 00:08:23 2
4 105 Thomas Reiker SF Nordvelen 1990 M12 00:08:26 2
5 107 Mareike Holtkamp SF Nordvelen 1990 W12 00:08:30 1
6 102 Sascha Lehmkuhl Ramsdorf 1990 M12 00:08:32 3
7 120 Pia Brinkert Viktoria Heiden 1992 W10 00:08:33 3
8 109 Jan Zimmermann TuS Velen 1993 M10 00:08:34 1
9 122 Felix Revers TuS Velen 1992 M10 00:08:42 2
10 101 Daniel Gördes Borken 1996 M7 00:08:49 1
11 108 Hendrik Pfeiffer Weseke 1993 M10 00:08:53 3
12 118 David Schnermann SF Nordvelen 1993 M10 00:08:57 4
13 123 Lukas Brüggemann TuS Velen 1993 M10 00:08:58 5
14 103 Franziska Bone Velen 1990 W12 00:09:00 2
15 116 Lukas Schnermann SF Nordvelen 1994 M8 00:09:05 1
16 112 Andre Richels SF Nordvelen 1990 M12 00:09:14 4
17 126 David Slawinski TuS Velen 1990 M12 00:09:17 5
18 127 Jens Harmeling Stadtlohn 1990 M12 00:09:51 6
19 128 Manuel Wensing SUS Stadtlohn 1992 M10 00:10:12 6
20 111 Felix Jendritza TuS Velen 1993 M10 00:10:27 7
21 117 Markus Schnermann SF Nordvelen 1991 M12 00:10:33 7
22 124 Anouk Tenbrink Andreas Grundschule 1995 W8 00:10:39 1
23 7 Luke Langela Velen 1995 M8 00:10:40 2
24 100 Lars Hinricher Velen 1994 M8 00:10:43 3
25 114 Linda Funke Teakwondo Baek-Ho Borken 1992 W10 00:10:53 4
26 110 Fabian Jendritza TuS Velen 1996 M7 00:11:25 2
27 106 Nina Epping Velen 1993 W10 00:11:51 5
28 113 Simon Richels SF Nordvelen 1994 M8 00:12:01 4
29 115 Kirsten Schonnebeck TuS Velen 1996 W7 00:12:05 1
30 125 Tabea Tenbrink DRK Kinderland 1997 W7 00:12:16 2
31 129 Michael Föcking SC Südlohn 1992 M10   8

Tabelle 2: 6km

Ges.- Plaz. Start-Nr. Name Ort / Verein Jahrgang AK Laufzeit AK Plaz.
1 231 Torsten Burgers Velen 1963 M40 00:20:19 1
2 240 Jörn Tenbrink Greven 1969 M30 00:20:41 1
3 245 Ewald Harmeling SuS Stadtlohn 1962 M40 00:20:49 2
4 256 Georg Hüging Tri Finish Münster 1964 M35 00:21:22 1
5 237 Thomas Kemper SUS Stadtlohn Triathlon 1986 M16 00:21:57 1
6 255 Bodo Klag Velen 1982 M20 00:22:05 1
7 214 Paul Vallée WSV Bocholt 1920 1966 M35 00:22:08 2
8 249 Christiane Kempkes TV Borken 1963 W40 00:22:19 1
9 241 Christian Büsker Landjugend Velen 1976 M25 00:22:30 1
10 223 Roland Freyther Borken 1981 M20 00:22:31 2
11 239 Wilhelm Lemme TuS Velen 1960 M40 00:22:47 3
12 207 Urban Lehmkuhl Ramsdorf 1964 M35 00:22:50 3
13 211 Franz Schwering SG Borken 1953 M50 00:22:51 1
14 234 Christian Höing DLRG Velen-Ramsdorf 1987 M16 00:22:53 2
15 251 Ludger Sundrum Reken 1966 M35 00:22:55 4
16 250 Mike Renners Gymnasium Remigianum 1984 W18 00:22:56 1
17 236 Bernd Holdschlag TuS Velen 1960 M40 00:23:00 4
18 202 Jürgen Tenbrink Borken 1969 M30 00:23:01 2
19 257 Hendrik Hardeweg SuS Stadtlohn 1971 M30 00:23:09 3
20 218 Jürgen Stippel LG Coesfeld 1954 M45 00:23:10 1
21 235 Dietmar Block Velen 1961 M40 00:23:20 5
22 227 Sandra Kemper LT Weseke 1968 W35 00:23:38 1
23 201 Ingo Spier Ramsdorf 1968 M35 00:24:03 5
24 222 Robert Langela Fortuna Bieling 1965 M35 00:24:12 6
25 242 Gereon Klag TuS Velen 1991 M12 00:24:13 1
26 232 Kira Bellmann FC Viktoria Heiden 1989 W14 00:24:22 1
27 244 Thomas Tenkamp Velen 1963 M40 00:24:41 6
28 210 Agnes Schwering SG Borken 1956 W45 00:25:37 1
29 213 Georg Epping SF Nordvelen 1964 M35 00:25:37 7
30 238 Berhard Hoffboll SC Südlohn 1953 M50 00:26:28 2
31 200 Karsten Schulz Velen 1974 M25 00:26:33 2
32 220 Carolin Knüwer Viktoria Heiden 1995 W8 00:26:34 1
33 221 Karl-Heinz Knüwer Viktoria Heiden 1958 M45 00:26:41 2
34 208 Wilhelm Stümmler Reken 1962 M40 00:26:59 7
35 205 Judith Spier Ramsdorf 1972 W30 00:27:03 1
36 254 Franz-Josef Föcking SC Südlohn 1961 M40 00:27:24 8
37 229 Paul Heinze TuS Velen 1956 M45 00:27:48 3
38 230 Bernhard Honerbom Velen 1950 M50 00:28:04 3
39 233 Hugo Höing DLRG Velen-Ramsdorf 1957 M45 00:28:26 4
40 248 Paul Terodde SV Hoxfeld 1937 M65 00:29:11 1
41 246 Norbert Bone Velen 1967 M35 00:29:21 8
42 212 Marion Reiker Reken 1980 W20 00:30:02 1
43 217 Sandra Hirschmann Velen 1973 W30 00:30:15 2
44 225 Andrea Eckelmann Stadtlohn 1965 W35 00:30:21 2
45 253 Hermann Juenck TV Borken 1949 M50 00:30:27 4
46 243 Marcel Mughal TuS Velen 1996 M12 00:30:47 2
47 216 Irmgard Uphues Velen 1963 W40 00:30:57 2
48 215 Birgitt Tempelmann Velen 1965 W35 00:31:13 3
49 226 Antje Brakel Ramsdorf 1965 W35 00:31:23 4
50 252 Alfons Schnermann TuS Velen 1939 M65 00:31:47 2
51 228 Marianne Schilling SV Schermbeck 1954 M45 00:32:28 5
52 206 Bernhard Lehmkuhl Ramsdorf 1935 M65 00:33:07 3
53 224 Elisabeth Arends Stadtlohn 1961 W40 00:33:07 3
54 247 Ralf Schmidt Velen 1964 M35 00:33:14 9

Tabelle 3: 400m

Ges.- Plaz. Start-Nr. Name Ort / Verein Jahrgang Laufzeit
1 6 René Zimmermann TuS Velen 1996 00:01:31
2 5 Leoni Knüwer Viktoria Heiden 1997 00:01:39
3 10 Noel Westphal Velen 1993 00:01:51
4 4 Gerrit Pfeiffer Weseke 1998 00:01:52
5 9 Kai Tenkamp Velen 1997 00:01:54
6 2 Lea Tenbrink Borken 1997 00:01:56
7 1 Michael Gördes Borken 1997 00:01:59
8 8 Simon Schnermann SF Nordvelen 1998 00:02:08
nach oben

Spender

CountDown

14. Tiergartenlauf SportSchloss Velen

20.06.2020 - 11:00 Uhr

von Minimarathon bis Halbmarathon - für jeden Starter ein Lauf dabei

Noch



Countdown
abgelaufen


Kubik-Rubik Joomla! Extensions

Zufallsbild

IMG_0800.JPG

Spender

Spender

© 2018 Tiergartenlauf SportSchloss Velen. All Rights Reserved. Designed By WarpTheme